createdAt,value
2022-08-07T00:00:41.488Z,60.81
2022-08-07T00:02:36.810Z,60.65
2022-08-07T00:03:08.775Z,61.51
2022-08-07T00:04:11.381Z,60.97
2022-08-07T00:05:20.288Z,60.79
2022-08-07T00:06:29.557Z,61.07
2022-08-07T00:07:40.802Z,60.46
2022-08-07T00:08:44.405Z,60.80
2022-08-07T00:09:59.189Z,60.39
2022-08-07T00:11:13.918Z,60.87
2022-08-07T00:12:22.186Z,60.42
2022-08-07T00:13:30.600Z,61.01
2022-08-07T00:14:35.438Z,61.66
2022-08-07T00:15:46.789Z,60.98
2022-08-07T00:16:53.269Z,61.69
2022-08-07T00:17:57.926Z,61.45
2022-08-07T00:19:05.611Z,62.72
2022-08-07T00:20:09.163Z,62.80
2022-08-07T00:21:57.361Z,62.45
2022-08-07T00:22:51.755Z,63.07
2022-08-07T00:23:56.598Z,63.25
2022-08-07T00:24:58.788Z,62.73
2022-08-07T00:26:18.867Z,62.50
2022-08-07T00:27:29.135Z,63.23
2022-08-07T00:28:56.789Z,62.39
2022-08-07T00:29:59.275Z,64.01
2022-08-07T00:31:06.279Z,63.04
2022-08-07T00:32:14.976Z,62.83
2022-08-07T00:33:20.182Z,63.02
2022-08-07T00:34:22.257Z,63.08
2022-08-07T00:35:30.736Z,63.55
2022-08-07T00:36:35.423Z,63.12
2022-08-07T00:37:48.132Z,63.26
2022-08-07T00:38:55.685Z,63.39
2022-08-07T00:39:59.913Z,64.25
2022-08-07T00:41:05.138Z,64.62
2022-08-07T00:42:12.241Z,64.83
2022-08-07T00:44:00.229Z,64.89
2022-08-07T00:44:42.105Z,65.43
2022-08-07T00:45:46.616Z,64.78
2022-08-07T00:46:51.550Z,65.36
2022-08-07T00:48:07.730Z,65.21
2022-08-07T00:49:24.959Z,66.28
2022-08-07T00:50:50.694Z,66.29
2022-08-07T00:51:58.448Z,65.79
2022-08-07T00:53:01.037Z,66.08
2022-08-07T00:54:08.985Z,66.93
2022-08-07T00:55:17.236Z,66.98
2022-08-07T00:56:33.799Z,66.70
2022-08-07T00:57:36.664Z,67.20
2022-08-07T00:58:46.973Z,66.50
2022-08-07T00:59:52.050Z,66.65
2022-08-07T01:00:56.834Z,67.35
2022-08-07T01:01:59.259Z,68.07
2022-08-07T01:03:04.136Z,68.17
2022-08-07T01:04:11.433Z,68.08
2022-08-07T01:05:27.805Z,67.65
2022-08-07T01:06:34.548Z,68.44
2022-08-07T01:07:38.019Z,68.36
2022-08-07T01:08:52.094Z,68.00
2022-08-07T01:10:06.668Z,68.54
2022-08-07T01:12:24.113Z,68.63
2022-08-07T01:12:43.963Z,69.78
2022-08-07T01:13:59.452Z,71.10
2022-08-07T01:15:03.927Z,70.78
2022-08-07T01:16:10.186Z,71.43
2022-08-07T01:17:13.558Z,71.91
2022-08-07T01:18:18.819Z,72.74
2022-08-07T01:19:22.878Z,72.38
2022-08-07T01:20:34.512Z,72.52
2022-08-07T01:21:49.326Z,72.47
2022-08-07T01:23:12.276Z,72.49
2022-08-07T01:24:21.247Z,72.23
2022-08-07T01:25:53.830Z,72.74
2022-08-07T01:26:53.793Z,72.32
2022-08-07T01:27:56.730Z,72.84
2022-08-07T01:29:04.904Z,72.87
2022-08-07T01:30:09.519Z,74.11
2022-08-07T01:31:17.919Z,73.22
2022-08-07T01:32:22.473Z,73.56
2022-08-07T01:33:30.184Z,73.35
2022-08-07T01:34:53.630Z,74.04
2022-08-07T01:36:05.917Z,74.52
2022-08-07T01:37:17.368Z,74.68
2022-08-07T01:38:24.926Z,74.75
2022-08-07T01:39:40.403Z,75.15
2022-08-07T01:40:44.439Z,75.26
2022-08-07T01:42:07.220Z,75.21
2022-08-07T01:43:18.856Z,74.88
2022-08-07T01:44:21.546Z,74.76
2022-08-07T01:45:37.303Z,74.99
2022-08-07T01:46:42.491Z,74.62
2022-08-07T01:48:19.636Z,75.33
2022-08-07T01:49:13.963Z,74.36
2022-08-07T01:50:22.832Z,75.46
2022-08-07T01:52:02.542Z,75.36
2022-08-07T01:53:08.681Z,75.97
2022-08-07T01:54:32.582Z,75.78
2022-08-07T01:55:42.368Z,75.59
2022-08-07T01:56:49.740Z,74.92
2022-08-07T01:58:05.832Z,75.42
2022-08-07T01:59:30.804Z,74.91
2022-08-07T02:00:45.390Z,75.02
2022-08-07T02:02:02.779Z,75.24
2022-08-07T02:03:21.177Z,75.76
2022-08-07T02:04:32.667Z,75.77
2022-08-07T02:05:43.241Z,75.40
2022-08-07T02:06:52.157Z,76.09
2022-08-07T02:08:00.565Z,77.06
2022-08-07T02:09:11.650Z,77.08
2022-08-07T02:10:36.535Z,77.01
2022-08-07T02:12:02.624Z,76.92
2022-08-07T02:13:09.231Z,77.42
2022-08-07T02:14:14.563Z,76.33
2022-08-07T02:15:40.386Z,75.62
2022-08-07T02:16:43.117Z,75.75
2022-08-07T02:17:51.852Z,76.21
2022-08-07T02:18:56.143Z,76.70
2022-08-07T02:20:09.939Z,76.42
2022-08-07T02:21:25.254Z,76.72
2022-08-07T02:22:30.293Z,76.97
2022-08-07T02:23:37.841Z,77.67
2022-08-07T02:24:44.976Z,78.18
2022-08-07T02:26:31.508Z,77.83
2022-08-07T02:27:14.176Z,78.57
2022-08-07T02:28:25.360Z,78.96
2022-08-07T02:29:30.721Z,78.58
2022-08-07T02:30:38.328Z,78.61
2022-08-07T02:31:41.358Z,78.77
2022-08-07T02:33:07.273Z,79.18
2022-08-07T02:34:11.613Z,79.30
2022-08-07T02:36:28.274Z,79.98
2022-08-07T02:36:46.177Z,80.65
2022-08-07T02:37:52.483Z,80.54
2022-08-07T02:38:57.273Z,80.86
2022-08-07T02:40:30.165Z,80.71
2022-08-07T02:41:33.370Z,81.75
2022-08-07T02:42:42.877Z,81.82
2022-08-07T02:43:48.926Z,82.15
2022-08-07T02:44:55.536Z,82.80
